South Sutton, New Hampshire
Current Conditions -  °F | °C
As of 12:51 AM on Wednesday 26 Nov 2014 (Local Time) from KCON Reporting Station
Clear Clear  
Wind Chill: 31°   Ceiling: Unl
Heat Index: 31°   Visibility: 10mi
Dew Point: 27°   Wind: 3mph
Humidity: 85%   Direction: 130°SE
Pressure: 30.12"   Gusts: NA
Location:  43.32°N, 71.93°W
Report Text: KCON 260551Z AUTO 13003KT 10SM CLR M01/M03 A3012 RMK AO2 SLP203 T10061028 10061 21006 53025
Loading
Personal Weather Stations






























Interactive Weather Map New forecast layout! Learn more

10-Day Weather Forecast

Advertisements
Track Severe Weather on mobile